sensor_id;sensor_type;location;lat;lon;timestamp;temperature;humidity
54578;DHT22;40474;49.330;8.130;2022-09-13T00:01:22;16.50;99.90
54578;DHT22;40474;49.330;8.130;2022-09-13T00:03:48;16.50;99.90
54578;DHT22;40474;49.330;8.130;2022-09-13T00:06:16;16.50;99.90
54578;DHT22;40474;49.330;8.130;2022-09-13T00:08:42;16.50;99.90
54578;DHT22;40474;49.330;8.130;2022-09-13T00:11:23;16.50;99.90
54578;DHT22;40474;49.330;8.130;2022-09-13T00:13:50;16.40;99.90
54578;DHT22;40474;49.330;8.130;2022-09-13T00:16:18;16.30;99.90
54578;DHT22;40474;49.330;8.130;2022-09-13T00:18:45;16.30;99.90
54578;DHT22;40474;49.330;8.130;2022-09-13T00:21:12;16.30;99.90
54578;DHT22;40474;49.330;8.130;2022-09-13T00:23:42;16.20;99.90
54578;DHT22;40474;49.330;8.130;2022-09-13T00:26:10;16.20;99.90
54578;DHT22;40474;49.330;8.130;2022-09-13T00:28:37;16.20;99.90
54578;DHT22;40474;49.330;8.130;2022-09-13T00:31:05;16.20;99.90
54578;DHT22;40474;49.330;8.130;2022-09-13T00:33:32;16.10;99.90
54578;DHT22;40474;49.330;8.130;2022-09-13T00:36:02;16.10;99.90
54578;DHT22;40474;49.330;8.130;2022-09-13T00:38:29;16.10;99.90
54578;DHT22;40474;49.330;8.130;2022-09-13T00:40:56;16.10;99.90
54578;DHT22;40474;49.330;8.130;2022-09-13T00:43:39;16.10;99.90
54578;DHT22;40474;49.330;8.130;2022-09-13T00:46:06;16.10;99.90
54578;DHT22;40474;49.330;8.130;2022-09-13T00:48:33;16.10;99.90
54578;DHT22;40474;49.330;8.130;2022-09-13T00:51:00;16.00;99.90
54578;DHT22;40474;49.330;8.130;2022-09-13T00:53:29;16.00;99.90
54578;DHT22;40474;49.330;8.130;2022-09-13T01:00:49;15.90;99.90
54578;DHT22;40474;49.330;8.130;2022-09-13T01:03:16;15.90;99.90
54578;DHT22;40474;49.330;8.130;2022-09-13T01:05:45;15.90;99.90
54578;DHT22;40474;49.330;8.130;2022-09-13T01:08:14;15.90;99.90
54578;DHT22;40474;49.330;8.130;2022-09-13T01:10:49;15.80;99.90
54578;DHT22;40474;49.330;8.130;2022-09-13T01:13:17;15.80;99.90
54578;DHT22;40474;49.330;8.130;2022-09-13T01:15:45;15.70;99.90
54578;DHT22;40474;49.330;8.130;2022-09-13T01:18:13;15.70;99.90
54578;DHT22;40474;49.330;8.130;2022-09-13T01:23:49;15.70;99.90
54578;DHT22;40474;49.330;8.130;2022-09-13T01:26:21;15.60;99.90
54578;DHT22;40474;49.330;8.130;2022-09-13T01:31:34;15.60;99.90
54578;DHT22;40474;49.330;8.130;2022-09-13T01:36:39;15.60;99.90
54578;DHT22;40474;49.330;8.130;2022-09-13T01:44:51;15.50;99.90
54578;DHT22;40474;49.330;8.130;2022-09-13T01:47:26;15.50;99.90
54578;DHT22;40474;49.330;8.130;2022-09-13T01:50:07;15.50;99.90
54578;DHT22;40474;49.330;8.130;2022-09-13T01:52:49;15.40;99.90
54578;DHT22;40474;49.330;8.130;2022-09-13T01:58:09;15.40;99.90
54578;DHT22;40474;49.330;8.130;2022-09-13T02:00:51;15.40;99.90
54578;DHT22;40474;49.330;8.130;2022-09-13T02:03:24;15.40;99.90
54578;DHT22;40474;49.330;8.130;2022-09-13T02:05:56;15.40;99.90
54578;DHT22;40474;49.330;8.130;2022-09-13T02:11:10;15.40;99.90
54578;DHT22;40474;49.330;8.130;2022-09-13T02:13:38;15.40;99.90
54578;DHT22;40474;49.330;8.130;2022-09-13T02:16:07;15.40;99.90
54578;DHT22;40474;49.330;8.130;2022-09-13T02:18:40;15.40;99.90
54578;DHT22;40474;49.330;8.130;2022-09-13T02:21:11;15.40;99.90
54578;DHT22;40474;49.330;8.130;2022-09-13T02:23:40;15.40;99.90
54578;DHT22;40474;49.330;8.130;2022-09-13T02:26:08;15.30;99.90
54578;DHT22;40474;49.330;8.130;2022-09-13T02:28:39;15.30;99.90
54578;DHT22;40474;49.330;8.130;2022-09-13T02:31:07;15.30;99.90
54578;DHT22;40474;49.330;8.130;2022-09-13T02:33:35;15.20;99.90
54578;DHT22;40474;49.330;8.130;2022-09-13T02:38:31;15.30;99.90
54578;DHT22;40474;49.330;8.130;2022-09-13T02:40:59;15.30;99.90
54578;DHT22;40474;49.330;8.130;2022-09-13T02:43:34;15.30;99.90
54578;DHT22;40474;49.330;8.130;2022-09-13T02:48:59;15.30;99.90
54578;DHT22;40474;49.330;8.130;2022-09-13T02:54:01;15.40;99.90
54578;DHT22;40474;49.330;8.130;2022-09-13T02:56:48;15.40;99.90
54578;DHT22;40474;49.330;8.130;2022-09-13T02:59:18;15.40;99.90
54578;DHT22;40474;49.330;8.130;2022-09-13T03:01:47;15.40;99.90
54578;DHT22;40474;49.330;8.130;2022-09-13T03:04:15;15.40;99.90
54578;DHT22;40474;49.330;8.130;2022-09-13T03:06:42;15.50;99.90
54578;DHT22;40474;49.330;8.130;2022-09-13T03:09:08;15.50;99.90
54578;DHT22;40474;49.330;8.130;2022-09-13T03:14:17;15.50;99.90
54578;DHT22;40474;49.330;8.130;2022-09-13T03:24:37;15.60;99.90
54578;DHT22;40474;49.330;8.130;2022-09-13T03:30:05;15.80;99.90
54578;DHT22;40474;49.330;8.130;2022-09-13T03:40:18;15.90;99.90
54578;DHT22;40474;49.330;8.130;2022-09-13T03:42:47;15.80;99.90
54578;DHT22;40474;49.330;8.130;2022-09-13T03:45:16;15.70;99.90
54578;DHT22;40474;49.330;8.130;2022-09-13T03:47:44;15.70;99.90
54578;DHT22;40474;49.330;8.130;2022-09-13T03:50:17;15.70;99.90
54578;DHT22;40474;49.330;8.130;2022-09-13T03:52:45;15.60;99.90
54578;DHT22;40474;49.330;8.130;2022-09-13T03:55:12;15.60;99.90
54578;DHT22;40474;49.330;8.130;2022-09-13T03:57:38;15.70;99.90
54578;DHT22;40474;49.330;8.130;2022-09-13T04:00:05;15.70;99.90
54578;DHT22;40474;49.330;8.130;2022-09-13T04:02:32;15.70;99.90
54578;DHT22;40474;49.330;8.130;2022-09-13T04:04:59;15.70;99.90
54578;DHT22;40474;49.330;8.130;2022-09-13T04:07:26;15.70;99.90
54578;DHT22;40474;49.330;8.130;2022-09-13T04:09:53;15.70;99.90
54578;DHT22;40474;49.330;8.130;2022-09-13T04:12:20;15.70;99.90
54578;DHT22;40474;49.330;8.130;2022-09-13T04:14:46;15.70;99.90
54578;DHT22;40474;49.330;8.130;2022-09-13T04:17:13;15.70;99.90
54578;DHT22;40474;49.330;8.130;2022-09-13T04:19:40;15.70;99.90
54578;DHT22;40474;49.330;8.130;2022-09-13T04:22:07;15.60;99.90
54578;DHT22;40474;49.330;8.130;2022-09-13T04:24:33;15.60;99.90
54578;DHT22;40474;49.330;8.130;2022-09-13T04:27:01;15.60;99.90
54578;DHT22;40474;49.330;8.130;2022-09-13T04:29:28;15.60;99.90
54578;DHT22;40474;49.330;8.130;2022-09-13T04:31:55;15.60;99.90
54578;DHT22;40474;49.330;8.130;2022-09-13T04:34:21;15.60;99.90
54578;DHT22;40474;49.330;8.130;2022-09-13T04:36:49;15.60;99.90
54578;DHT22;40474;49.330;8.130;2022-09-13T04:39:15;15.60;99.90
54578;DHT22;40474;49.330;8.130;2022-09-13T04:41:42;15.70;99.90
54578;DHT22;40474;49.330;8.130;2022-09-13T04:44:14;15.70;99.90
54578;DHT22;40474;49.330;8.130;2022-09-13T04:46:40;15.70;99.90
54578;DHT22;40474;49.330;8.130;2022-09-13T04:49:10;15.70;99.90
54578;DHT22;40474;49.330;8.130;2022-09-13T04:51:37;15.80;99.90
54578;DHT22;40474;49.330;8.130;2022-09-13T04:54:04;15.70;99.90
54578;DHT22;40474;49.330;8.130;2022-09-13T04:56:31;15.80;99.90
54578;DHT22;40474;49.330;8.130;2022-09-13T04:58:57;15.80;99.90
54578;DHT22;40474;49.330;8.130;2022-09-13T05:01:24;15.90;99.90
54578;DHT22;40474;49.330;8.130;2022-09-13T05:03:53;15.90;99.90
54578;DHT22;40474;49.330;8.130;2022-09-13T05:06:20;15.80;99.90
54578;DHT22;40474;49.330;8.130;2022-09-13T05:08:49;15.80;99.90
54578;DHT22;40474;49.330;8.130;2022-09-13T05:11:16;15.80;99.90
54578;DHT22;40474;49.330;8.130;2022-09-13T05:13:43;15.80;99.90
54578;DHT22;40474;49.330;8.130;2022-09-13T05:16:09;15.80;99.90
54578;DHT22;40474;49.330;8.130;2022-09-13T05:18:36;15.80;99.90
54578;DHT22;40474;49.330;8.130;2022-09-13T05:21:09;15.80;99.90
54578;DHT22;40474;49.330;8.130;2022-09-13T05:23:36;15.90;99.90
54578;DHT22;40474;49.330;8.130;2022-09-13T05:26:04;15.90;99.90
54578;DHT22;40474;49.330;8.130;2022-09-13T05:28:32;15.90;99.90
54578;DHT22;40474;49.330;8.130;2022-09-13T05:31:04;15.90;99.90
54578;DHT22;40474;49.330;8.130;2022-09-13T05:33:32;15.90;99.90
54578;DHT22;40474;49.330;8.130;2022-09-13T05:35:59;15.90;99.90
54578;DHT22;40474;49.330;8.130;2022-09-13T05:38:26;15.90;99.90
54578;DHT22;40474;49.330;8.130;2022-09-13T05:40:53;16.00;99.90
54578;DHT22;40474;49.330;8.130;2022-09-13T05:43:23;16.00;99.90
54578;DHT22;40474;49.330;8.130;2022-09-13T05:46:02;16.00;99.90
54578;DHT22;40474;49.330;8.130;2022-09-13T05:48:29;16.20;99.90
54578;DHT22;40474;49.330;8.130;2022-09-13T05:50:56;16.20;99.90
54578;DHT22;40474;49.330;8.130;2022-09-13T05:53:24;16.40;99.90
54578;DHT22;40474;49.330;8.130;2022-09-13T05:55:51;16.50;99.90
54578;DHT22;40474;49.330;8.130;2022-09-13T05:58:17;16.70;99.90
54578;DHT22;40474;49.330;8.130;2022-09-13T06:00:44;16.80;99.90
54578;DHT22;40474;49.330;8.130;2022-09-13T06:03:10;17.00;99.90
54578;DHT22;40474;49.330;8.130;2022-09-13T06:05:37;17.10;99.90
54578;DHT22;40474;49.330;8.130;2022-09-13T06:08:03;17.20;99.90
54578;DHT22;40474;49.330;8.130;2022-09-13T06:10:30;17.20;99.90
54578;DHT22;40474;49.330;8.130;2022-09-13T06:12:56;17.20;99.90
54578;DHT22;40474;49.330;8.130;2022-09-13T06:15:23;17.30;99.90
54578;DHT22;40474;49.330;8.130;2022-09-13T06:17:50;17.40;99.90
54578;DHT22;40474;49.330;8.130;2022-09-13T06:20:17;17.50;99.90
54578;DHT22;40474;49.330;8.130;2022-09-13T06:22:43;17.60;99.90
54578;DHT22;40474;49.330;8.130;2022-09-13T06:25:10;17.60;99.90
54578;DHT22;40474;49.330;8.130;2022-09-13T06:27:37;17.60;99.90
54578;DHT22;40474;49.330;8.130;2022-09-13T06:30:04;17.70;99.90
54578;DHT22;40474;49.330;8.130;2022-09-13T06:32:30;17.70;99.90
54578;DHT22;40474;49.330;8.130;2022-09-13T06:34:57;17.70;99.90
54578;DHT22;40474;49.330;8.130;2022-09-13T06:37:24;17.70;99.90
54578;DHT22;40474;49.330;8.130;2022-09-13T06:39:50;17.80;99.90
54578;DHT22;40474;49.330;8.130;2022-09-13T06:42:17;17.90;99.90
54578;DHT22;40474;49.330;8.130;2022-09-13T06:44:44;17.90;99.90
54578;DHT22;40474;49.330;8.130;2022-09-13T06:47:11;17.90;99.90
54578;DHT22;40474;49.330;8.130;2022-09-13T06:49:38;17.80;99.90
54578;DHT22;40474;49.330;8.130;2022-09-13T06:52:05;17.90;99.90
54578;DHT22;40474;49.330;8.130;2022-09-13T06:54:31;17.90;99.90
54578;DHT22;40474;49.330;8.130;2022-09-13T06:56:58;18.00;99.90
54578;DHT22;40474;49.330;8.130;2022-09-13T06:59:24;18.00;99.60
54578;DHT22;40474;49.330;8.130;2022-09-13T07:01:51;18.00;99.90
54578;DHT22;40474;49.330;8.130;2022-09-13T07:04:18;18.00;99.90
54578;DHT22;40474;49.330;8.130;2022-09-13T07:06:45;17.90;99.90
54578;DHT22;40474;49.330;8.130;2022-09-13T07:09:14;17.80;99.90
54578;DHT22;40474;49.330;8.130;2022-09-13T07:11:41;17.80;99.90
54578;DHT22;40474;49.330;8.130;2022-09-13T07:14:08;17.80;99.90
54578;DHT22;40474;49.330;8.130;2022-09-13T07:16:37;17.90;99.90
54578;DHT22;40474;49.330;8.130;2022-09-13T07:19:05;17.90;99.80
54578;DHT22;40474;49.330;8.130;2022-09-13T07:21:33;17.90;99.90
54578;DHT22;40474;49.330;8.130;2022-09-13T07:24:00;17.90;99.80
54578;DHT22;40474;49.330;8.130;2022-09-13T07:26:27;17.90;99.90
54578;DHT22;40474;49.330;8.130;2022-09-13T07:28:55;17.90;99.80
54578;DHT22;40474;49.330;8.130;2022-09-13T07:31:37;17.90;99.70
54578;DHT22;40474;49.330;8.130;2022-09-13T07:34:05;17.90;99.60
54578;DHT22;40474;49.330;8.130;2022-09-13T07:36:33;17.90;99.90
54578;DHT22;40474;49.330;8.130;2022-09-13T07:39:00;18.00;99.90
54578;DHT22;40474;49.330;8.130;2022-09-13T07:41:28;18.10;99.90
54578;DHT22;40474;49.330;8.130;2022-09-13T07:43:55;18.10;99.70
54578;DHT22;40474;49.330;8.130;2022-09-13T07:46:23;18.20;99.80
54578;DHT22;40474;49.330;8.130;2022-09-13T07:48:53;18.10;99.70
54578;DHT22;40474;49.330;8.130;2022-09-13T07:51:40;18.20;99.70
54578;DHT22;40474;49.330;8.130;2022-09-13T07:54:09;18.30;99.40
54578;DHT22;40474;49.330;8.130;2022-09-13T07:56:37;18.30;99.40
54578;DHT22;40474;49.330;8.130;2022-09-13T07:59:05;18.30;99.30
54578;DHT22;40474;49.330;8.130;2022-09-13T08:01:36;18.40;99.40
54578;DHT22;40474;49.330;8.130;2022-09-13T08:04:05;18.40;99.50
54578;DHT22;40474;49.330;8.130;2022-09-13T08:06:32;18.30;99.70
54578;DHT22;40474;49.330;8.130;2022-09-13T08:08:59;18.30;99.90
54578;DHT22;40474;49.330;8.130;2022-09-13T08:11:33;18.50;99.40
54578;DHT22;40474;49.330;8.130;2022-09-13T08:14:00;19.00;98.70
54578;DHT22;40474;49.330;8.130;2022-09-13T08:16:30;19.50;97.40
54578;DHT22;40474;49.330;8.130;2022-09-13T08:18:57;20.20;96.60
54578;DHT22;40474;49.330;8.130;2022-09-13T08:21:25;21.20;95.10
54578;DHT22;40474;49.330;8.130;2022-09-13T08:23:55;21.70;93.60
54578;DHT22;40474;49.330;8.130;2022-09-13T08:26:22;22.40;93.20
54578;DHT22;40474;49.330;8.130;2022-09-13T08:28:53;23.40;88.30
54578;DHT22;40474;49.330;8.130;2022-09-13T08:31:20;23.40;84.60
54578;DHT22;40474;49.330;8.130;2022-09-13T08:33:48;24.00;81.60
54578;DHT22;40474;49.330;8.130;2022-09-13T08:36:15;25.00;77.20
54578;DHT22;40474;49.330;8.130;2022-09-13T08:38:46;26.10;70.80
54578;DHT22;40474;49.330;8.130;2022-09-13T08:48:49;23.60;77.20
54578;DHT22;40474;49.330;8.130;2022-09-13T08:53:59;22.70;82.40
54578;DHT22;40474;49.330;8.130;2022-09-13T09:04:30;24.70;76.80
54578;DHT22;40474;49.330;8.130;2022-09-13T09:09:33;26.00;72.50
54578;DHT22;40474;49.330;8.130;2022-09-13T09:12:14;26.30;70.90
54578;DHT22;40474;49.330;8.130;2022-09-13T09:14:47;26.30;68.90
54578;DHT22;40474;49.330;8.130;2022-09-13T09:17:19;25.80;71.40
54578;DHT22;40474;49.330;8.130;2022-09-13T09:19:48;25.40;73.90
54578;DHT22;40474;49.330;8.130;2022-09-13T09:22:19;25.00;75.90
54578;DHT22;40474;49.330;8.130;2022-09-13T09:24:51;24.60;77.00
54578;DHT22;40474;49.330;8.130;2022-09-13T09:27:19;24.40;79.10
54578;DHT22;40474;49.330;8.130;2022-09-13T09:29:47;24.30;78.20
54578;DHT22;40474;49.330;8.130;2022-09-13T09:37:30;25.00;77.90
54578;DHT22;40474;49.330;8.130;2022-09-13T09:39:59;25.20;77.30
54578;DHT22;40474;49.330;8.130;2022-09-13T09:42:44;25.20;77.40
54578;DHT22;40474;49.330;8.130;2022-09-13T09:47:48;25.30;76.20
54578;DHT22;40474;49.330;8.130;2022-09-13T09:50:19;25.20;76.20
54578;DHT22;40474;49.330;8.130;2022-09-13T09:57:56;24.70;77.20
54578;DHT22;40474;49.330;8.130;2022-09-13T10:00:24;24.20;79.60
54578;DHT22;40474;49.330;8.130;2022-09-13T10:02:52;24.00;82.30
54578;DHT22;40474;49.330;8.130;2022-09-13T10:05:21;24.10;82.50
54578;DHT22;40474;49.330;8.130;2022-09-13T10:08:07;24.00;81.90
54578;DHT22;40474;49.330;8.130;2022-09-13T10:10:39;24.00;82.20
54578;DHT22;40474;49.330;8.130;2022-09-13T10:13:12;24.00;81.90
54578;DHT22;40474;49.330;8.130;2022-09-13T10:15:50;24.00;83.50
54578;DHT22;40474;49.330;8.130;2022-09-13T10:18:19;24.00;83.30
54578;DHT22;40474;49.330;8.130;2022-09-13T10:23:42;23.80;84.40
54578;DHT22;40474;49.330;8.130;2022-09-13T10:26:13;23.80;83.80
54578;DHT22;40474;49.330;8.130;2022-09-13T10:28:48;23.80;86.00
54578;DHT22;40474;49.330;8.130;2022-09-13T10:31:16;23.80;86.70
54578;DHT22;40474;49.330;8.130;2022-09-13T10:34:02;23.80;85.90
54578;DHT22;40474;49.330;8.130;2022-09-13T10:36:34;23.70;87.60
54578;DHT22;40474;49.330;8.130;2022-09-13T10:39:18;23.90;88.10
54578;DHT22;40474;49.330;8.130;2022-09-13T10:41:48;24.10;86.80
54578;DHT22;40474;49.330;8.130;2022-09-13T10:44:26;24.30;86.40
54578;DHT22;40474;49.330;8.130;2022-09-13T10:46:54;24.30;86.80
54578;DHT22;40474;49.330;8.130;2022-09-13T10:52:27;24.60;85.30
54578;DHT22;40474;49.330;8.130;2022-09-13T10:54:54;24.60;85.40
54578;DHT22;40474;49.330;8.130;2022-09-13T10:57:28;24.40;86.50
54578;DHT22;40474;49.330;8.130;2022-09-13T10:59:56;24.30;87.20
54578;DHT22;40474;49.330;8.130;2022-09-13T11:10:39;24.40;82.70
54578;DHT22;40474;49.330;8.130;2022-09-13T11:13:23;24.70;86.80
54578;DHT22;40474;49.330;8.130;2022-09-13T11:15:54;25.00;86.40
54578;DHT22;40474;49.330;8.130;2022-09-13T11:18:42;25.20;81.50
54578;DHT22;40474;49.330;8.130;2022-09-13T11:21:19;25.70;77.50
54578;DHT22;40474;49.330;8.130;2022-09-13T11:26:39;28.00;69.50
54578;DHT22;40474;49.330;8.130;2022-09-13T11:32:10;28.10;70.70
54578;DHT22;40474;49.330;8.130;2022-09-13T11:40:11;27.10;74.60
54578;DHT22;40474;49.330;8.130;2022-09-13T11:42:59;27.00;75.20
54578;DHT22;40474;49.330;8.130;2022-09-13T11:45:34;27.50;74.40
54578;DHT22;40474;49.330;8.130;2022-09-13T11:53:29;28.70;70.60
54578;DHT22;40474;49.330;8.130;2022-09-13T11:55:59;29.60;67.10
54578;DHT22;40474;49.330;8.130;2022-09-13T11:58:38;30.70;65.10
54578;DHT22;40474;49.330;8.130;2022-09-13T12:01:09;31.30;61.00
54578;DHT22;40474;49.330;8.130;2022-09-13T12:03:39;31.10;60.10
54578;DHT22;40474;49.330;8.130;2022-09-13T12:06:13;30.30;59.80
54578;DHT22;40474;49.330;8.130;2022-09-13T12:08:43;29.50;60.20
54578;DHT22;40474;49.330;8.130;2022-09-13T12:11:14;29.00;61.90
54578;DHT22;40474;49.330;8.130;2022-09-13T12:13:47;28.20;62.80
54578;DHT22;40474;49.330;8.130;2022-09-13T12:16:18;27.80;66.10
54578;DHT22;40474;49.330;8.130;2022-09-13T12:18:48;27.50;66.80
54578;DHT22;40474;49.330;8.130;2022-09-13T12:21:25;27.40;67.70
54578;DHT22;40474;49.330;8.130;2022-09-13T12:24:01;27.30;68.00
54578;DHT22;40474;49.330;8.130;2022-09-13T12:26:30;27.10;67.80
54578;DHT22;40474;49.330;8.130;2022-09-13T12:29:06;27.00;67.70
54578;DHT22;40474;49.330;8.130;2022-09-13T12:31:35;26.80;65.00
54578;DHT22;40474;49.330;8.130;2022-09-13T12:34:04;26.70;68.90
54578;DHT22;40474;49.330;8.130;2022-09-13T12:36:37;26.50;66.30
54578;DHT22;40474;49.330;8.130;2022-09-13T12:44:16;26.20;72.00
54578;DHT22;40474;49.330;8.130;2022-09-13T12:47:09;26.90;72.60
54578;DHT22;40474;49.330;8.130;2022-09-13T12:52:19;29.20;61.20
54578;DHT22;40474;49.330;8.130;2022-09-13T12:55:04;29.90;59.40
54578;DHT22;40474;49.330;8.130;2022-09-13T13:00:28;31.00;55.20
54578;DHT22;40474;49.330;8.130;2022-09-13T13:03:00;31.30;53.30
54578;DHT22;40474;49.330;8.130;2022-09-13T13:05:35;31.70;52.00
54578;DHT22;40474;49.330;8.130;2022-09-13T13:08:14;31.90;54.10
54578;DHT22;40474;49.330;8.130;2022-09-13T13:10:43;31.90;51.30
54578;DHT22;40474;49.330;8.130;2022-09-13T13:18:20;30.50;52.30
54578;DHT22;40474;49.330;8.130;2022-09-13T13:23:21;29.80;54.20
54578;DHT22;40474;49.330;8.130;2022-09-13T13:26:00;29.50;53.40
54578;DHT22;40474;49.330;8.130;2022-09-13T13:33:54;28.60;56.70
54578;DHT22;40474;49.330;8.130;2022-09-13T13:36:25;28.60;58.60
54578;DHT22;40474;49.330;8.130;2022-09-13T13:38:55;28.60;58.50
54578;DHT22;40474;49.330;8.130;2022-09-13T13:54:57;29.60;54.10
54578;DHT22;40474;49.330;8.130;2022-09-13T13:59:46;29.20;57.70
54578;DHT22;40474;49.330;8.130;2022-09-13T14:02:14;29.10;57.50
54578;DHT22;40474;49.330;8.130;2022-09-13T14:07:34;28.70;58.00
54578;DHT22;40474;49.330;8.130;2022-09-13T14:10:23;28.40;58.60
54578;DHT22;40474;49.330;8.130;2022-09-13T14:12:55;28.40;59.00
54578;DHT22;40474;49.330;8.130;2022-09-13T14:15:33;28.30;58.80
54578;DHT22;40474;49.330;8.130;2022-09-13T14:18:11;28.20;59.50
54578;DHT22;40474;49.330;8.130;2022-09-13T14:20:58;28.10;59.80
54578;DHT22;40474;49.330;8.130;2022-09-13T14:23:25;27.90;60.60
54578;DHT22;40474;49.330;8.130;2022-09-13T14:25:56;28.00;60.80
54578;DHT22;40474;49.330;8.130;2022-09-13T14:28:23;28.10;61.60
54578;DHT22;40474;49.330;8.130;2022-09-13T14:30:54;28.00;61.20
54578;DHT22;40474;49.330;8.130;2022-09-13T14:33:23;27.80;59.70
54578;DHT22;40474;49.330;8.130;2022-09-13T14:36:01;27.60;62.30
54578;DHT22;40474;49.330;8.130;2022-09-13T14:38:30;27.40;63.40
54578;DHT22;40474;49.330;8.130;2022-09-13T14:41:17;27.30;63.70
54578;DHT22;40474;49.330;8.130;2022-09-13T14:43:44;27.10;62.90
54578;DHT22;40474;49.330;8.130;2022-09-13T14:46:27;27.10;63.60
54578;DHT22;40474;49.330;8.130;2022-09-13T14:48:57;26.80;63.60
54578;DHT22;40474;49.330;8.130;2022-09-13T14:53:54;26.70;64.10
54578;DHT22;40474;49.330;8.130;2022-09-13T14:58:53;26.70;65.80
54578;DHT22;40474;49.330;8.130;2022-09-13T15:01:25;26.80;65.20
54578;DHT22;40474;49.330;8.130;2022-09-13T15:03:53;26.60;63.80
54578;DHT22;40474;49.330;8.130;2022-09-13T15:06:22;26.60;64.10
54578;DHT22;40474;49.330;8.130;2022-09-13T15:08:49;26.60;64.60
54578;DHT22;40474;49.330;8.130;2022-09-13T15:11:29;26.60;65.40
54578;DHT22;40474;49.330;8.130;2022-09-13T15:14:00;26.60;65.40
54578;DHT22;40474;49.330;8.130;2022-09-13T15:16:28;26.50;65.10
54578;DHT22;40474;49.330;8.130;2022-09-13T15:22:01;26.40;66.10
54578;DHT22;40474;49.330;8.130;2022-09-13T15:24:29;26.20;66.60
54578;DHT22;40474;49.330;8.130;2022-09-13T15:27:00;26.20;66.00
54578;DHT22;40474;49.330;8.130;2022-09-13T15:29:27;26.10;64.50
54578;DHT22;40474;49.330;8.130;2022-09-13T15:31:57;26.00;65.60
54578;DHT22;40474;49.330;8.130;2022-09-13T15:34:24;25.90;65.00
54578;DHT22;40474;49.330;8.130;2022-09-13T15:39:48;25.70;65.40
54578;DHT22;40474;49.330;8.130;2022-09-13T15:42:15;25.60;65.50
54578;DHT22;40474;49.330;8.130;2022-09-13T15:44:42;25.60;65.80
54578;DHT22;40474;49.330;8.130;2022-09-13T15:47:11;25.50;66.00
54578;DHT22;40474;49.330;8.130;2022-09-13T15:49:41;25.40;66.60
54578;DHT22;40474;49.330;8.130;2022-09-13T15:52:12;25.40;69.50
54578;DHT22;40474;49.330;8.130;2022-09-13T15:54:39;25.40;72.10
54578;DHT22;40474;49.330;8.130;2022-09-13T15:57:08;25.30;69.20
54578;DHT22;40474;49.330;8.130;2022-09-13T15:59:35;25.30;75.50
54578;DHT22;40474;49.330;8.130;2022-09-13T16:02:11;25.30;76.00
54578;DHT22;40474;49.330;8.130;2022-09-13T16:04:41;25.20;71.40
54578;DHT22;40474;49.330;8.130;2022-09-13T16:07:07;25.20;70.50
54578;DHT22;40474;49.330;8.130;2022-09-13T16:09:34;25.10;70.20
54578;DHT22;40474;49.330;8.130;2022-09-13T16:12:03;25.00;70.40
54578;DHT22;40474;49.330;8.130;2022-09-13T16:14:30;25.00;70.80
54578;DHT22;40474;49.330;8.130;2022-09-13T16:16:58;24.90;71.70
54578;DHT22;40474;49.330;8.130;2022-09-13T16:19:25;24.90;72.10
54578;DHT22;40474;49.330;8.130;2022-09-13T16:21:52;24.80;71.20
54578;DHT22;40474;49.330;8.130;2022-09-13T16:24:19;24.80;71.70
54578;DHT22;40474;49.330;8.130;2022-09-13T16:26:45;24.70;72.60
54578;DHT22;40474;49.330;8.130;2022-09-13T16:29:12;24.70;72.40
54578;DHT22;40474;49.330;8.130;2022-09-13T16:31:39;24.70;73.60
54578;DHT22;40474;49.330;8.130;2022-09-13T16:34:06;24.60;72.20
54578;DHT22;40474;49.330;8.130;2022-09-13T16:36:32;24.60;73.30
54578;DHT22;40474;49.330;8.130;2022-09-13T16:38:59;24.60;72.90
54578;DHT22;40474;49.330;8.130;2022-09-13T16:41:26;24.60;72.70
54578;DHT22;40474;49.330;8.130;2022-09-13T16:43:53;24.50;73.10
54578;DHT22;40474;49.330;8.130;2022-09-13T16:46:20;24.50;73.90
54578;DHT22;40474;49.330;8.130;2022-09-13T16:48:53;24.50;73.70
54578;DHT22;40474;49.330;8.130;2022-09-13T16:51:21;24.40;73.50
54578;DHT22;40474;49.330;8.130;2022-09-13T16:53:48;24.40;73.60
54578;DHT22;40474;49.330;8.130;2022-09-13T16:56:16;24.30;73.80
54578;DHT22;40474;49.330;8.130;2022-09-13T16:58:43;24.30;75.50
54578;DHT22;40474;49.330;8.130;2022-09-13T17:01:12;24.30;75.80
54578;DHT22;40474;49.330;8.130;2022-09-13T17:03:39;24.20;76.90
54578;DHT22;40474;49.330;8.130;2022-09-13T17:06:07;24.10;79.40
54578;DHT22;40474;49.330;8.130;2022-09-13T17:08:35;24.10;85.10
54578;DHT22;40474;49.330;8.130;2022-09-13T17:11:06;24.00;80.20
54578;DHT22;40474;49.330;8.130;2022-09-13T17:13:32;23.90;80.00
54578;DHT22;40474;49.330;8.130;2022-09-13T17:15:59;23.90;81.30
54578;DHT22;40474;49.330;8.130;2022-09-13T17:18:26;23.80;79.30
54578;DHT22;40474;49.330;8.130;2022-09-13T17:20:52;23.70;79.70
54578;DHT22;40474;49.330;8.130;2022-09-13T17:23:19;23.70;78.90
54578;DHT22;40474;49.330;8.130;2022-09-13T17:25:46;23.60;79.00
54578;DHT22;40474;49.330;8.130;2022-09-13T17:28:15;23.60;81.30
54578;DHT22;40474;49.330;8.130;2022-09-13T17:30:41;23.50;79.80
54578;DHT22;40474;49.330;8.130;2022-09-13T17:33:08;23.40;80.70
54578;DHT22;40474;49.330;8.130;2022-09-13T17:35:35;23.30;82.20
54578;DHT22;40474;49.330;8.130;2022-09-13T17:38:02;23.30;81.60
54578;DHT22;40474;49.330;8.130;2022-09-13T17:40:29;23.20;82.50
54578;DHT22;40474;49.330;8.130;2022-09-13T17:42:56;23.20;82.30
54578;DHT22;40474;49.330;8.130;2022-09-13T17:45:23;23.20;82.00
54578;DHT22;40474;49.330;8.130;2022-09-13T17:47:54;23.10;84.00
54578;DHT22;40474;49.330;8.130;2022-09-13T17:50:20;23.00;83.60
54578;DHT22;40474;49.330;8.130;2022-09-13T17:52:47;23.00;83.90
54578;DHT22;40474;49.330;8.130;2022-09-13T17:55:14;22.90;83.80
54578;DHT22;40474;49.330;8.130;2022-09-13T17:57:41;22.90;87.70
54578;DHT22;40474;49.330;8.130;2022-09-13T18:00:08;22.80;87.00
54578;DHT22;40474;49.330;8.130;2022-09-13T18:02:38;22.70;84.90
54578;DHT22;40474;49.330;8.130;2022-09-13T18:05:05;22.70;85.00
54578;DHT22;40474;49.330;8.130;2022-09-13T18:07:38;22.70;86.00
54578;DHT22;40474;49.330;8.130;2022-09-13T18:10:05;22.60;86.20
54578;DHT22;40474;49.330;8.130;2022-09-13T18:12:51;22.60;89.10
54578;DHT22;40474;49.330;8.130;2022-09-13T18:15:18;22.50;88.90
54578;DHT22;40474;49.330;8.130;2022-09-13T18:17:44;22.50;90.70
54578;DHT22;40474;49.330;8.130;2022-09-13T18:20:11;22.40;90.70
54578;DHT22;40474;49.330;8.130;2022-09-13T18:22:38;22.40;90.40
54578;DHT22;40474;49.330;8.130;2022-09-13T18:25:05;22.40;88.50
54578;DHT22;40474;49.330;8.130;2022-09-13T18:27:32;22.40;89.30
54578;DHT22;40474;49.330;8.130;2022-09-13T18:29:59;22.40;92.50
54578;DHT22;40474;49.330;8.130;2022-09-13T18:32:26;22.30;93.00
54578;DHT22;40474;49.330;8.130;2022-09-13T18:34:53;22.20;93.10
54578;DHT22;40474;49.330;8.130;2022-09-13T18:37:20;22.10;93.20